createdAt,value
2018-10-18T00:00:44.529Z,24.05
2018-10-18T00:01:44.561Z,23.94
2018-10-18T00:02:44.543Z,23.92
2018-10-18T00:03:44.625Z,23.93
2018-10-18T00:04:44.909Z,23.90
2018-10-18T00:05:44.637Z,23.92
2018-10-18T00:06:44.722Z,23.84
2018-10-18T00:07:44.755Z,23.93
2018-10-18T00:08:44.734Z,23.92
2018-10-18T00:09:44.769Z,23.93
2018-10-18T00:11:44.832Z,23.87
2018-10-18T00:12:45.163Z,23.89
2018-10-18T00:13:44.896Z,23.84
2018-10-18T00:14:44.924Z,23.84
2018-10-18T00:15:45.017Z,23.94
2018-10-18T00:16:45.040Z,23.89
2018-10-18T00:17:45.024Z,23.87
2018-10-18T00:18:45.083Z,23.81
2018-10-18T00:19:45.439Z,23.94
2018-10-18T00:20:45.127Z,23.93
2018-10-18T00:22:45.287Z,23.93
2018-10-18T00:23:45.262Z,23.87
2018-10-18T00:24:45.249Z,23.90
2018-10-18T00:25:45.275Z,23.89
2018-10-18T00:26:45.604Z,23.84
2018-10-18T00:27:45.387Z,23.84
2018-10-18T00:28:45.371Z,23.87
2018-10-18T00:29:45.399Z,23.86
2018-10-18T00:30:45.432Z,23.86
2018-10-18T00:31:45.515Z,23.87
2018-10-18T00:32:45.501Z,23.90
2018-10-18T00:33:45.826Z,23.86
2018-10-18T00:34:46.255Z,23.79
2018-10-18T00:35:45.640Z,23.81
2018-10-18T00:36:45.626Z,23.79
2018-10-18T00:37:45.709Z,23.77
2018-10-18T00:38:45.687Z,23.75
2018-10-18T00:39:45.772Z,23.77
2018-10-18T00:40:46.051Z,23.72
2018-10-18T00:41:45.781Z,23.78
2018-10-18T00:42:45.868Z,23.77
2018-10-18T00:43:45.850Z,23.68
2018-10-18T00:44:45.932Z,23.72
2018-10-18T00:45:45.906Z,23.67
2018-10-18T00:46:45.941Z,23.71
2018-10-18T00:47:46.272Z,23.64
2018-10-18T00:48:46.055Z,23.68
2018-10-18T00:49:46.038Z,23.63
2018-10-18T00:50:46.069Z,23.69
2018-10-18T00:51:46.148Z,23.69
2018-10-18T00:52:46.181Z,23.69
2018-10-18T00:53:46.212Z,23.69
2018-10-18T00:54:46.544Z,23.68
2018-10-18T00:55:46.274Z,23.68
2018-10-18T00:56:46.259Z,23.62
2018-10-18T00:57:46.288Z,23.67
2018-10-18T00:58:46.371Z,23.59
2018-10-18T00:59:46.401Z,23.57
2018-10-18T01:01:46.462Z,23.60
2018-10-18T01:02:46.794Z,23.64
2018-10-18T01:03:46.527Z,23.62
2018-10-18T01:05:46.540Z,23.63
2018-10-18T01:06:46.624Z,23.64
2018-10-18T01:07:46.652Z,23.56
2018-10-18T01:08:46.688Z,23.64
2018-10-18T01:09:46.969Z,23.63
2018-10-18T01:10:46.699Z,23.57
2018-10-18T01:11:46.732Z,23.60
2018-10-18T01:12:46.944Z,23.54
2018-10-18T01:13:46.804Z,23.54
2018-10-18T01:14:46.883Z,23.56
2018-10-18T01:15:46.906Z,23.50
2018-10-18T01:16:47.239Z,23.59
2018-10-18T01:17:46.919Z,23.59
2018-10-18T01:18:46.949Z,23.54
2018-10-18T01:19:47.034Z,23.54
2018-10-18T01:20:47.017Z,23.57
2018-10-18T01:21:47.042Z,23.54
2018-10-18T01:22:47.077Z,23.57
2018-10-18T01:23:47.413Z,23.52
2018-10-18T01:24:47.189Z,23.57
2018-10-18T01:25:47.170Z,23.53
2018-10-18T01:26:47.255Z,23.50
2018-10-18T01:27:47.284Z,23.50
2018-10-18T01:28:47.268Z,23.59
2018-10-18T01:29:47.447Z,23.56
2018-10-18T01:30:47.630Z,23.56
2018-10-18T01:31:47.415Z,23.47
2018-10-18T01:33:47.477Z,23.52
2018-10-18T01:34:47.460Z,23.42
2018-10-18T01:35:47.485Z,23.54
2018-10-18T01:36:47.519Z,23.53
2018-10-18T01:37:47.898Z,23.50
2018-10-18T01:38:47.630Z,23.47
2018-10-18T01:39:47.665Z,23.44
2018-10-18T01:40:47.644Z,23.49
2018-10-18T01:41:47.675Z,23.44
2018-10-18T01:42:47.707Z,23.45
2018-10-18T01:43:48.039Z,23.44
2018-10-18T01:44:47.819Z,23.42
2018-10-18T01:45:47.853Z,23.45
2018-10-18T01:46:47.883Z,23.44
2018-10-18T01:47:47.913Z,23.45
2018-10-18T01:48:47.894Z,23.41
2018-10-18T01:49:48.325Z,23.44
2018-10-18T01:50:47.957Z,23.42
2018-10-18T01:51:48.040Z,23.39
2018-10-18T01:52:48.072Z,23.41
2018-10-18T01:53:48.102Z,23.41
2018-10-18T01:54:48.092Z,23.41
2018-10-18T01:55:48.474Z,23.29
2018-10-18T01:56:48.149Z,23.41
2018-10-18T01:57:48.227Z,23.41
2018-10-18T01:58:48.549Z,23.39
2018-10-18T01:59:48.245Z,23.34
2018-10-18T02:00:48.379Z,23.38
2018-10-18T02:01:48.406Z,23.38
2018-10-18T02:03:48.667Z,23.39
2018-10-18T02:04:48.396Z,23.34
2018-10-18T02:05:48.432Z,23.37
2018-10-18T02:06:48.460Z,23.32
2018-10-18T02:07:48.548Z,23.38
2018-10-18T02:08:48.575Z,23.39
2018-10-18T02:09:48.956Z,23.35
2018-10-18T02:11:48.616Z,23.32
2018-10-18T02:12:48.647Z,23.26
2018-10-18T02:13:48.838Z,23.31
2018-10-18T02:14:48.715Z,23.34
2018-10-18T02:15:48.846Z,23.31
2018-10-18T02:16:49.073Z,23.31
2018-10-18T02:17:48.805Z,23.34
2018-10-18T02:18:48.835Z,23.32
2018-10-18T02:19:48.872Z,23.32
2018-10-18T02:20:48.954Z,23.34
2018-10-18T02:21:48.980Z,23.38
2018-10-18T02:22:48.964Z,23.34
2018-10-18T02:23:49.298Z,23.31
2018-10-18T02:24:49.026Z,23.34
2018-10-18T02:25:49.056Z,23.38
2018-10-18T02:26:49.136Z,23.31
2018-10-18T02:27:49.170Z,23.32
2018-10-18T02:28:49.202Z,23.38
2018-10-18T02:29:49.181Z,23.31
2018-10-18T02:30:49.515Z,23.37
2018-10-18T02:31:49.295Z,23.32
2018-10-18T02:32:49.325Z,23.37
2018-10-18T02:33:49.306Z,23.25
2018-10-18T02:34:49.340Z,23.34
2018-10-18T02:35:49.369Z,23.37
2018-10-18T02:36:49.463Z,23.34
2018-10-18T02:37:49.733Z,23.32
2018-10-18T02:38:49.475Z,23.35
2018-10-18T02:39:49.498Z,23.34
2018-10-18T02:40:49.593Z,23.37
2018-10-18T02:41:49.558Z,23.35
2018-10-18T02:42:49.737Z,23.34
2018-10-18T02:43:49.677Z,23.31
2018-10-18T02:44:50.001Z,23.38
2018-10-18T02:45:49.731Z,23.29
2018-10-18T02:47:49.794Z,23.37
2018-10-18T02:49:49.864Z,23.35
2018-10-18T02:50:49.839Z,23.32
2018-10-18T02:51:50.170Z,23.25
2018-10-18T02:53:49.995Z,23.29
2018-10-18T02:54:49.966Z,23.29
2018-10-18T02:55:49.997Z,23.29
2018-10-18T02:56:50.075Z,23.29
2018-10-18T02:57:50.108Z,23.26
2018-10-18T02:58:50.389Z,23.35
2018-10-18T02:59:50.184Z,23.26
2018-10-18T03:00:50.154Z,23.23
2018-10-18T03:01:50.246Z,23.29
2018-10-18T03:02:50.272Z,23.22
2018-10-18T03:03:50.248Z,23.29
2018-10-18T03:04:50.330Z,23.22
2018-10-18T03:05:50.615Z,23.29
2018-10-18T03:06:50.405Z,23.25
2018-10-18T03:07:50.433Z,23.26
2018-10-18T03:08:50.419Z,23.22
2018-10-18T03:09:50.434Z,23.31
2018-10-18T03:10:50.521Z,23.26
2018-10-18T03:11:50.516Z,23.29
2018-10-18T03:12:50.827Z,23.23
2018-10-18T03:13:50.612Z,23.29
2018-10-18T03:14:50.592Z,23.22
2018-10-18T03:15:50.694Z,23.25
2018-10-18T03:16:50.715Z,23.26
2018-10-18T03:17:50.689Z,23.23
2018-10-18T03:18:50.715Z,23.25
2018-10-18T03:19:51.047Z,23.21
2018-10-18T03:21:50.859Z,23.21
2018-10-18T03:22:50.860Z,23.16
2018-10-18T03:23:50.876Z,23.15
2018-10-18T03:24:50.909Z,23.15
2018-10-18T03:25:51.009Z,23.15
2018-10-18T03:26:51.265Z,23.19
2018-10-18T03:27:51.053Z,23.19
2018-10-18T03:28:51.081Z,23.18
2018-10-18T03:29:51.109Z,23.15
2018-10-18T03:30:51.141Z,23.15
2018-10-18T03:31:51.182Z,23.22
2018-10-18T03:32:51.464Z,23.12
2018-10-18T03:33:51.183Z,23.09
2018-10-18T03:34:51.221Z,23.09
2018-10-18T03:35:51.299Z,23.21
2018-10-18T03:36:51.336Z,23.06
2018-10-18T03:37:51.361Z,23.09
2018-10-18T03:39:51.673Z,23.07
2018-10-18T03:40:51.452Z,23.11
2018-10-18T03:41:51.498Z,23.15
2018-10-18T03:42:51.467Z,23.06
2018-10-18T03:43:51.549Z,23.14
2018-10-18T03:44:51.578Z,23.06
2018-10-18T03:45:51.860Z,23.06
2018-10-18T03:46:51.642Z,23.14
2018-10-18T03:47:51.639Z,23.18
2018-10-18T03:48:51.711Z,23.11
2018-10-18T03:49:51.692Z,23.11
2018-10-18T03:50:51.784Z,23.06
2018-10-18T03:51:52.103Z,23.12
2018-10-18T03:52:51.814Z,23.12
2018-10-18T03:53:51.870Z,23.03
2018-10-18T03:54:51.860Z,23.06
2018-10-18T03:55:51.930Z,23.04
2018-10-18T03:56:51.907Z,23.09
2018-10-18T03:57:51.940Z,23.09
2018-10-18T03:58:52.265Z,23.01
2018-10-18T03:59:52.001Z,23.06
2018-10-18T04:00:52.048Z,23.03
2018-10-18T04:01:52.073Z,23.07
2018-10-18T04:02:52.092Z,23.06
2018-10-18T04:03:52.143Z,23.01
2018-10-18T04:04:52.154Z,23.00
2018-10-18T04:05:52.556Z,22.97
2018-10-18T04:06:52.216Z,23.04
2018-10-18T04:07:52.311Z,23.06
2018-10-18T04:08:52.275Z,23.00
2018-10-18T04:09:52.361Z,23.00
2018-10-18T04:10:52.394Z,22.99
2018-10-18T04:11:52.444Z,23.00
2018-10-18T04:12:52.793Z,22.97
2018-10-18T04:13:52.436Z,23.01
2018-10-18T04:14:52.464Z,23.01
2018-10-18T04:15:52.502Z,23.04
2018-10-18T04:16:52.576Z,23.01
2018-10-18T04:17:52.611Z,23.01
2018-10-18T04:18:52.591Z,23.01
2018-10-18T04:19:52.920Z,23.01
2018-10-18T04:20:52.661Z,23.03
2018-10-18T04:21:52.732Z,23.00
2018-10-18T04:22:52.766Z,23.00
2018-10-18T04:23:52.841Z,23.06
2018-10-18T04:24:52.775Z,22.99
2018-10-18T04:25:52.816Z,23.03
2018-10-18T04:26:53.147Z,23.01
2018-10-18T04:27:52.922Z,23.06
2018-10-18T04:28:52.900Z,22.94
2018-10-18T04:29:52.945Z,23.00
2018-10-18T04:30:53.022Z,23.04
2018-10-18T04:31:52.993Z,23.00
2018-10-18T04:32:53.073Z,22.99
2018-10-18T04:33:53.362Z,23.00
2018-10-18T04:34:53.090Z,23.00
2018-10-18T04:35:53.207Z,22.96
2018-10-18T04:36:53.151Z,22.99
2018-10-18T04:37:53.231Z,22.97
2018-10-18T04:38:53.213Z,23.03
2018-10-18T04:39:53.295Z,23.04
2018-10-18T04:40:53.574Z,22.96
2018-10-18T04:41:53.317Z,22.94
2018-10-18T04:42:53.390Z,23.01
2018-10-18T04:43:53.423Z,22.94
2018-10-18T04:44:53.404Z,22.94
2018-10-18T04:45:53.436Z,22.96
2018-10-18T04:46:53.536Z,22.89
2018-10-18T04:47:53.980Z,22.93
2018-10-18T04:48:53.683Z,22.94
2018-10-18T04:49:53.554Z,22.96
2018-10-18T04:50:53.587Z,22.79
2018-10-18T04:51:53.722Z,22.93
2018-10-18T04:52:53.648Z,22.94
2018-10-18T04:53:53.730Z,22.82
2018-10-18T04:54:54.040Z,22.78
2018-10-18T04:55:53.790Z,22.82
2018-10-18T04:56:53.985Z,22.84
2018-10-18T04:57:53.810Z,22.85
2018-10-18T04:58:53.841Z,22.79
2018-10-18T04:59:53.869Z,22.84
2018-10-18T05:00:53.952Z,22.85
2018-10-18T05:01:54.234Z,22.89
2018-10-18T05:02:53.967Z,22.88
2018-10-18T05:03:54.040Z,22.91
2018-10-18T05:04:54.123Z,22.85
2018-10-18T05:05:54.052Z,22.86
2018-10-18T05:06:54.123Z,22.85
2018-10-18T05:07:54.176Z,22.85
2018-10-18T05:08:54.446Z,22.86
2018-10-18T05:09:54.235Z,22.89
2018-10-18T05:10:54.257Z,22.91
2018-10-18T05:11:54.242Z,22.85
2018-10-18T05:12:54.359Z,22.88
2018-10-18T05:13:54.302Z,22.76
2018-10-18T05:14:54.329Z,22.82
2018-10-18T05:15:54.668Z,22.88
2018-10-18T05:16:54.441Z,22.94
2018-10-18T05:17:54.423Z,22.82
2018-10-18T05:18:54.484Z,22.85
2018-10-18T05:19:54.550Z,22.86
2018-10-18T05:20:54.577Z,22.81
2018-10-18T05:22:54.880Z,22.84
2018-10-18T05:23:54.661Z,22.89
2018-10-18T05:25:54.745Z,22.85
2018-10-18T05:26:54.717Z,22.85
2018-10-18T05:27:54.746Z,22.88
2018-10-18T05:28:55.069Z,22.89
2018-10-18T05:29:54.852Z,22.94
2018-10-18T05:30:54.883Z,22.94
2018-10-18T05:31:55.015Z,22.85
2018-10-18T05:32:54.951Z,22.89
2018-10-18T05:33:54.990Z,22.85
2018-10-18T05:35:55.298Z,22.94
2018-10-18T05:36:55.075Z,22.88
2018-10-18T05:37:55.103Z,22.86
2018-10-18T05:38:55.079Z,22.85
2018-10-18T05:39:55.156Z,22.85
2018-10-18T05:40:55.190Z,22.85
2018-10-18T05:41:55.468Z,22.81
2018-10-18T05:42:55.270Z,22.82
2018-10-18T05:43:55.255Z,22.84
2018-10-18T05:44:55.280Z,22.82
2018-10-18T05:45:55.393Z,22.89
2018-10-18T05:46:55.492Z,22.82
2018-10-18T05:47:55.710Z,22.86
2018-10-18T05:48:55.472Z,22.88
2018-10-18T05:49:55.527Z,22.88
2018-10-18T05:50:55.496Z,22.85
2018-10-18T05:51:55.535Z,22.93
2018-10-18T05:52:55.580Z,22.85
2018-10-18T05:53:55.681Z,22.85
2018-10-18T05:54:55.968Z,22.82
2018-10-18T05:56:55.644Z,22.89
2018-10-18T05:57:55.723Z,22.97
2018-10-18T05:58:55.752Z,22.86
2018-10-18T05:59:55.785Z,22.94
2018-10-18T06:00:55.808Z,22.86
2018-10-18T06:01:56.089Z,22.84
2018-10-18T06:02:55.820Z,22.93
2018-10-18T06:03:55.917Z,22.93
2018-10-18T06:04:55.932Z,22.97
2018-10-18T06:05:55.916Z,22.99
2018-10-18T06:06:55.973Z,22.99
2018-10-18T06:07:56.027Z,22.99
2018-10-18T06:08:56.316Z,23.09
2018-10-18T06:09:56.215Z,23.06
2018-10-18T06:10:56.130Z,23.03
2018-10-18T06:11:56.152Z,23.03
2018-10-18T06:12:56.229Z,23.03
2018-10-18T06:13:56.161Z,23.00
2018-10-18T06:14:56.248Z,22.99
2018-10-18T06:15:56.523Z,23.06
2018-10-18T06:16:56.317Z,23.03
2018-10-18T06:17:56.341Z,23.07
2018-10-18T06:18:56.383Z,23.06
2018-10-18T06:19:56.492Z,23.14
2018-10-18T06:20:56.385Z,23.04
2018-10-18T06:21:56.424Z,23.09
2018-10-18T06:22:56.599Z,23.04
2018-10-18T06:23:56.539Z,23.07
2018-10-18T06:24:56.614Z,23.06
2018-10-18T06:25:56.537Z,23.18
2018-10-18T06:26:56.632Z,23.07
2018-10-18T06:27:56.601Z,23.09
2018-10-18T06:28:56.965Z,23.14
2018-10-18T06:29:56.662Z,23.18
2018-10-18T06:30:56.744Z,23.18
2018-10-18T06:31:56.778Z,23.22
2018-10-18T06:32:56.829Z,23.16
2018-10-18T06:33:56.841Z,23.16
2018-10-18T06:34:56.859Z,23.18
2018-10-18T06:35:57.151Z,23.19
2018-10-18T06:36:57.008Z,23.19
2018-10-18T06:37:56.960Z,23.15
2018-10-18T06:38:56.977Z,23.12
2018-10-18T06:39:57.034Z,23.22
2018-10-18T06:40:57.021Z,23.22
2018-10-18T06:41:57.341Z,23.22
2018-10-18T06:42:57.154Z,23.26
2018-10-18T06:43:57.147Z,23.25
2018-10-18T06:44:57.132Z,23.23
2018-10-18T06:45:57.173Z,23.23
2018-10-18T06:46:57.317Z,23.29
2018-10-18T06:47:57.670Z,23.23
2018-10-18T06:48:57.364Z,23.22
2018-10-18T06:49:57.325Z,23.22
2018-10-18T06:50:57.366Z,23.25
2018-10-18T06:51:57.404Z,23.26
2018-10-18T06:52:57.428Z,23.25
2018-10-18T06:53:57.739Z,23.31
2018-10-18T06:54:57.446Z,23.25
2018-10-18T06:55:57.519Z,23.22
2018-10-18T06:56:57.555Z,23.26
2018-10-18T06:57:57.592Z,23.23
2018-10-18T06:58:57.567Z,23.26
2018-10-18T06:59:57.799Z,23.25
2018-10-18T07:00:57.675Z,23.35
2018-10-18T07:01:57.658Z,23.29
2018-10-18T07:02:57.733Z,23.34
2018-10-18T07:03:57.727Z,23.29
2018-10-18T07:04:57.798Z,23.37
2018-10-18T07:05:57.842Z,23.37
2018-10-18T07:06:58.122Z,23.29
2018-10-18T07:07:57.894Z,23.31
2018-10-18T07:08:57.954Z,23.32
2018-10-18T07:09:57.919Z,23.22
2018-10-18T07:10:58.023Z,23.32
2018-10-18T07:11:58.044Z,23.38
2018-10-18T07:12:58.057Z,23.35
2018-10-18T07:13:58.328Z,23.32
2018-10-18T07:14:58.064Z,23.35
2018-10-18T07:15:58.152Z,23.32
2018-10-18T07:16:58.177Z,23.29
2018-10-18T07:17:58.218Z,23.41
2018-10-18T07:18:58.188Z,23.38
2018-10-18T07:19:58.268Z,23.35
2018-10-18T07:20:58.605Z,23.39
2018-10-18T07:21:58.282Z,23.44
2018-10-18T07:22:58.373Z,23.41
2018-10-18T07:23:58.399Z,23.45
2018-10-18T07:25:58.456Z,23.44
2018-10-18T07:26:58.483Z,23.45
2018-10-18T07:27:58.814Z,23.44
2018-10-18T07:28:58.547Z,23.42
2018-10-18T07:29:58.583Z,23.47
2018-10-18T07:30:58.557Z,23.44
2018-10-18T07:31:58.642Z,23.44
2018-10-18T07:32:58.624Z,23.45
2018-10-18T07:33:58.702Z,23.47
2018-10-18T07:34:58.833Z,23.50
2018-10-18T07:35:58.816Z,23.57
2018-10-18T07:36:58.748Z,23.57
2018-10-18T07:37:58.830Z,23.53
2018-10-18T07:38:58.815Z,23.53
2018-10-18T07:39:58.900Z,23.50
2018-10-18T07:40:59.224Z,23.56
2018-10-18T07:41:58.906Z,23.59
2018-10-18T07:42:58.935Z,23.56
2018-10-18T07:43:58.967Z,23.54
2018-10-18T07:44:59.053Z,23.67
2018-10-18T07:45:59.089Z,23.64
2018-10-18T07:46:59.550Z,23.57
2018-10-18T07:47:59.193Z,23.64
2018-10-18T07:49:59.257Z,23.67
2018-10-18T07:50:59.183Z,23.63
2018-10-18T07:51:59.270Z,23.62
2018-10-18T07:52:59.696Z,23.68
2018-10-18T07:53:59.318Z,23.64
2018-10-18T07:54:59.368Z,23.63
2018-10-18T07:56:59.425Z,23.67
2018-10-18T07:57:59.429Z,23.68
2018-10-18T07:58:59.739Z,23.64
2018-10-18T07:59:59.582Z,23.67
2018-10-18T08:00:59.503Z,23.67
2018-10-18T08:01:59.663Z,23.69
2018-10-18T08:02:59.561Z,23.78
2018-10-18T08:03:59.673Z,23.67
2018-10-18T08:04:59.629Z,23.74
2018-10-18T08:05:59.983Z,23.78
2018-10-18T08:06:59.778Z,23.71
2018-10-18T08:07:59.771Z,23.71
2018-10-18T08:08:59.756Z,23.75
2018-10-18T08:09:59.817Z,23.79
2018-10-18T08:10:59.857Z,23.77
2018-10-18T08:11:59.854Z,23.77
2018-10-18T08:13:00.219Z,23.77
2018-10-18T08:13:59.960Z,23.75
2018-10-18T08:14:59.969Z,23.77
2018-10-18T08:16:00.025Z,23.74
2018-10-18T08:17:00.155Z,23.72
2018-10-18T08:18:00.046Z,23.77
2018-10-18T08:19:00.152Z,23.77
2018-10-18T08:20:00.452Z,23.79
2018-10-18T08:21:00.185Z,23.84
2018-10-18T08:22:00.170Z,23.81
2018-10-18T08:23:00.202Z,23.84
2018-10-18T08:24:00.280Z,23.90
2018-10-18T08:25:00.339Z,23.84
2018-10-18T08:26:00.337Z,23.90
2018-10-18T08:27:00.636Z,23.86
2018-10-18T08:28:00.353Z,23.89
2018-10-18T08:29:00.385Z,23.94
2018-10-18T08:30:00.466Z,23.89
2018-10-18T08:31:00.494Z,23.87
2018-10-18T08:32:00.531Z,23.90
2018-10-18T08:33:00.549Z,23.94
2018-10-18T08:34:00.895Z,23.93
2018-10-18T08:35:00.622Z,23.92
2018-10-18T08:36:00.666Z,23.90
2018-10-18T08:37:00.739Z,23.93
2018-10-18T08:38:00.819Z,23.93
2018-10-18T08:39:00.702Z,23.96
2018-10-18T08:40:00.780Z,23.89
2018-10-18T08:42:01.149Z,23.92
2018-10-18T08:43:00.908Z,23.97
2018-10-18T08:44:01.096Z,23.87
2018-10-18T08:45:00.904Z,23.84
2018-10-18T08:46:00.970Z,23.89
2018-10-18T08:47:00.958Z,23.89
2018-10-18T08:48:01.035Z,23.90
2018-10-18T08:49:01.328Z,23.81
2018-10-18T08:50:01.198Z,23.97
2018-10-18T08:51:01.156Z,23.92
2018-10-18T08:52:01.111Z,23.92
2018-10-18T08:53:01.496Z,23.92
2018-10-18T08:54:01.186Z,23.94
2018-10-18T08:55:01.233Z,23.94
2018-10-18T08:56:01.591Z,23.93
2018-10-18T08:57:01.269Z,23.97
2018-10-18T08:58:01.355Z,23.96
2018-10-18T08:59:01.402Z,23.96
2018-10-18T09:00:01.418Z,23.93
2018-10-18T09:01:01.613Z,23.93
2018-10-18T09:02:01.545Z,24.02
2018-10-18T09:03:01.767Z,23.93
2018-10-18T09:04:01.492Z,23.94
2018-10-18T09:05:01.830Z,23.97
2018-10-18T09:06:01.721Z,23.96
2018-10-18T09:07:01.676Z,23.99
2018-10-18T09:08:01.681Z,23.97
2018-10-18T09:11:02.200Z,23.97
2018-10-18T09:12:01.801Z,23.99
2018-10-18T09:13:01.860Z,23.99
2018-10-18T09:14:01.949Z,23.99
2018-10-18T09:15:01.895Z,24.02
2018-10-18T09:16:02.014Z,23.99
2018-10-18T09:17:02.036Z,24.00
2018-10-18T09:18:02.250Z,23.99
2018-10-18T09:19:02.177Z,24.04
2018-10-18T09:20:02.010Z,24.08
2018-10-18T09:21:02.034Z,24.02
2018-10-18T09:22:02.064Z,24.04
2018-10-18T09:23:02.193Z,24.05
2018-10-18T09:24:02.272Z,24.05
2018-10-18T09:25:02.543Z,24.08
2018-10-18T09:26:02.251Z,24.05
2018-10-18T09:28:02.392Z,24.06
2018-10-18T09:29:02.497Z,24.05
2018-10-18T09:30:02.330Z,24.11
2018-10-18T09:31:02.432Z,24.08
2018-10-18T09:32:02.811Z,24.23
2018-10-18T09:33:02.469Z,24.05
2018-10-18T09:34:02.496Z,24.02
2018-10-18T09:35:02.481Z,24.11
2018-10-18T09:36:02.565Z,24.14
2018-10-18T09:37:02.559Z,24.21
2018-10-18T09:38:02.577Z,24.23
2018-10-18T09:39:02.906Z,24.18
2018-10-18T09:41:02.777Z,24.18
2018-10-18T09:42:02.758Z,24.19
2018-10-18T09:43:02.791Z,24.18
2018-10-18T09:44:02.823Z,24.18
2018-10-18T09:45:02.962Z,24.12
2018-10-18T09:46:03.135Z,24.21
2018-10-18T09:48:02.947Z,24.18
2018-10-18T09:49:03.075Z,24.16
2018-10-18T09:50:03.007Z,24.18
2018-10-18T09:51:03.023Z,24.19
2018-10-18T09:52:03.133Z,24.19
2018-10-18T09:53:03.365Z,24.15
2018-10-18T09:54:03.144Z,24.21
2018-10-18T09:55:03.195Z,24.27
2018-10-18T09:56:03.231Z,24.21
2018-10-18T09:57:03.230Z,24.19
2018-10-18T09:58:03.215Z,24.23
2018-10-18T09:59:03.308Z,24.33
2018-10-18T10:00:03.585Z,24.26
2018-10-18T10:01:03.416Z,24.26
2018-10-18T10:02:03.386Z,24.30
2018-10-18T10:03:03.376Z,24.29
2018-10-18T10:04:03.474Z,24.33
2018-10-18T10:05:03.518Z,24.30
2018-10-18T10:06:03.523Z,24.33
2018-10-18T10:07:03.542Z,24.30
2018-10-18T10:08:03.613Z,24.33
2018-10-18T10:09:03.578Z,24.37
2018-10-18T10:10:03.668Z,24.30
2018-10-18T10:11:03.633Z,24.34
2018-10-18T10:12:03.733Z,24.33
2018-10-18T10:13:04.109Z,24.37
2018-10-18T10:14:03.727Z,24.31
2018-10-18T10:15:03.820Z,24.30
2018-10-18T10:16:03.846Z,24.36
2018-10-18T10:17:03.883Z,24.36
2018-10-18T10:18:03.894Z,24.39
2018-10-18T10:19:04.217Z,24.36
2018-10-18T10:20:04.025Z,24.39
2018-10-18T10:21:04.016Z,24.41
2018-10-18T10:22:04.046Z,24.39
2018-10-18T10:23:04.082Z,24.44
2018-10-18T10:24:04.065Z,24.45
2018-10-18T10:25:04.431Z,24.36
2018-10-18T10:26:04.165Z,24.36
2018-10-18T10:27:04.196Z,24.46
2018-10-18T10:28:04.236Z,24.44
2018-10-18T10:29:04.213Z,24.42
2018-10-18T10:30:04.251Z,24.39
2018-10-18T10:31:04.373Z,24.41
2018-10-18T10:32:04.714Z,24.49
2018-10-18T10:33:04.608Z,24.41
2018-10-18T10:34:04.374Z,24.48
2018-10-18T10:35:04.520Z,24.42
2018-10-18T10:36:04.438Z,24.41
2018-10-18T10:37:04.517Z,24.51
2018-10-18T10:38:04.553Z,24.44
2018-10-18T10:39:04.851Z,24.48
2018-10-18T10:40:04.659Z,24.48
2018-10-18T10:41:04.670Z,24.49
2018-10-18T10:42:04.924Z,24.46
2018-10-18T10:43:04.869Z,24.45
2018-10-18T10:44:04.793Z,24.45
2018-10-18T10:45:04.796Z,24.46
2018-10-18T10:46:05.188Z,24.52
2018-10-18T10:47:04.802Z,24.49
2018-10-18T10:48:04.998Z,24.52
2018-10-18T10:49:04.909Z,24.51
2018-10-18T10:50:04.917Z,24.49
2018-10-18T10:51:05.357Z,24.48
2018-10-18T10:52:05.021Z,24.45
2018-10-18T10:53:05.284Z,24.56
2018-10-18T10:54:05.094Z,24.46
2018-10-18T10:55:05.058Z,24.51
2018-10-18T10:56:05.140Z,24.52
2018-10-18T10:57:05.130Z,24.59
2018-10-18T10:58:05.240Z,24.61
2018-10-18T10:59:05.195Z,24.60
2018-10-18T11:00:05.552Z,24.53
2018-10-18T11:01:05.300Z,24.52
2018-10-18T11:02:05.417Z,24.66
2018-10-18T11:03:05.366Z,24.55
2018-10-18T11:04:05.394Z,24.60
2018-10-18T11:05:05.384Z,24.61
2018-10-18T11:06:05.495Z,24.60
2018-10-18T11:07:05.792Z,24.61
2018-10-18T11:08:05.585Z,24.61
2018-10-18T11:09:05.670Z,24.59
2018-10-18T11:10:05.535Z,24.63
2018-10-18T11:11:05.621Z,24.66
2018-10-18T11:12:05.837Z,24.61
2018-10-18T11:13:05.691Z,24.60
2018-10-18T11:14:05.741Z,24.61
2018-10-18T11:15:05.823Z,24.63
2018-10-18T11:16:05.751Z,24.61
2018-10-18T11:17:05.794Z,24.66
2018-10-18T11:18:05.848Z,24.63
2018-10-18T11:19:05.852Z,24.59
2018-10-18T11:20:06.288Z,24.61
2018-10-18T11:21:05.968Z,24.59
2018-10-18T11:22:05.925Z,24.75
2018-10-18T11:23:05.970Z,24.61
2018-10-18T11:24:06.052Z,24.60
2018-10-18T11:25:06.087Z,24.63
2018-10-18T11:26:06.101Z,24.67
2018-10-18T11:27:06.482Z,24.75
2018-10-18T11:29:06.205Z,24.70
2018-10-18T11:30:06.286Z,24.74
2018-10-18T11:31:06.272Z,24.77
2018-10-18T11:32:06.390Z,24.75
2018-10-18T11:33:06.294Z,24.70
2018-10-18T11:34:06.341Z,24.74
2018-10-18T11:35:06.370Z,24.74
2018-10-18T11:36:06.475Z,24.74
2018-10-18T11:37:06.571Z,24.74
2018-10-18T11:38:06.513Z,24.75
2018-10-18T11:39:06.787Z,24.75
2018-10-18T11:40:06.566Z,24.75
2018-10-18T11:41:06.552Z,24.74
2018-10-18T11:42:06.673Z,24.77
2018-10-18T11:44:06.712Z,24.77
2018-10-18T11:45:06.727Z,24.79
2018-10-18T11:46:06.711Z,24.71
2018-10-18T11:47:06.745Z,24.74
2018-10-18T11:48:06.894Z,24.77
2018-10-18T11:49:06.871Z,24.74
2018-10-18T11:50:06.975Z,24.71
2018-10-18T11:51:06.924Z,24.70
2018-10-18T11:52:07.083Z,24.70
2018-10-18T11:54:07.053Z,24.74
2018-10-18T11:55:07.006Z,24.80
2018-10-18T11:56:07.229Z,24.77
2018-10-18T11:57:07.424Z,24.75
2018-10-18T11:58:07.105Z,24.79
2018-10-18T11:59:07.160Z,24.80
2018-10-18T12:00:07.226Z,24.77
2018-10-18T12:01:07.256Z,24.83
2018-10-18T12:02:07.405Z,24.79
2018-10-18T12:03:07.281Z,24.82
2018-10-18T12:04:07.669Z,24.79
2018-10-18T12:05:07.415Z,24.90
2018-10-18T12:06:07.422Z,24.82
2018-10-18T12:07:07.461Z,24.75
2018-10-18T12:08:07.475Z,24.83
2018-10-18T12:09:07.516Z,24.79
2018-10-18T12:10:07.500Z,24.82
2018-10-18T12:11:07.936Z,24.80
2018-10-18T12:12:07.625Z,24.80
2018-10-18T12:13:07.759Z,24.83
2018-10-18T12:14:07.787Z,24.77
2018-10-18T12:16:07.858Z,24.86
2018-10-18T12:17:07.979Z,24.75
2018-10-18T12:18:08.096Z,24.89
2018-10-18T12:19:07.895Z,24.86
2018-10-18T12:20:07.939Z,24.84
2018-10-18T12:21:07.916Z,24.87
2018-10-18T12:22:07.902Z,24.89
2018-10-18T12:23:08.000Z,24.93
2018-10-18T12:24:08.012Z,24.93
2018-10-18T12:25:08.348Z,24.86
2018-10-18T12:26:08.090Z,24.86
2018-10-18T12:27:08.114Z,24.87
2018-10-18T12:28:08.094Z,24.92
2018-10-18T12:29:08.200Z,24.92
2018-10-18T12:30:08.226Z,24.90
2018-10-18T12:31:08.491Z,24.90
2018-10-18T12:32:08.338Z,24.94
2018-10-18T12:33:08.261Z,24.86
2018-10-18T12:34:08.355Z,24.90
2018-10-18T12:35:08.470Z,24.89
2018-10-18T12:36:08.414Z,24.92
2018-10-18T12:37:08.701Z,24.97
2018-10-18T12:38:08.556Z,24.94
2018-10-18T12:39:08.578Z,24.90
2018-10-18T12:40:08.555Z,24.92
2018-10-18T12:41:08.730Z,24.97
2018-10-18T12:42:08.612Z,24.97
2018-10-18T12:43:08.943Z,24.94
2018-10-18T12:44:08.787Z,24.99
2018-10-18T12:45:08.657Z,25.02
2018-10-18T12:46:08.684Z,24.98
2018-10-18T12:47:08.773Z,25.04
2018-10-18T12:48:08.917Z,25.04
2018-10-18T12:49:08.870Z,24.99
2018-10-18T12:50:09.174Z,25.02
2018-10-18T12:51:08.915Z,25.01
2018-10-18T12:52:09.138Z,25.02
2018-10-18T12:53:08.994Z,25.02
2018-10-18T12:54:09.027Z,24.99
2018-10-18T12:55:09.033Z,25.08
2018-10-18T12:56:09.156Z,25.02
2018-10-18T12:57:09.403Z,25.02
2018-10-18T12:58:09.095Z,25.05
2018-10-18T12:59:09.167Z,25.05
2018-10-18T13:00:09.248Z,25.01
2018-10-18T13:01:09.244Z,25.07
2018-10-18T13:02:09.387Z,25.04
2018-10-18T13:03:09.272Z,25.04
2018-10-18T13:04:09.636Z,25.11
2018-10-18T13:05:09.370Z,25.02
2018-10-18T13:06:09.388Z,25.17
2018-10-18T13:07:09.397Z,25.05
2018-10-18T13:08:09.448Z,25.12
2018-10-18T13:09:09.509Z,25.12
2018-10-18T13:10:09.545Z,25.16
2018-10-18T13:11:09.832Z,25.09
2018-10-18T13:12:09.652Z,25.14
2018-10-18T13:13:09.592Z,25.14
2018-10-18T13:14:09.721Z,25.14
2018-10-18T13:15:09.653Z,25.14
2018-10-18T13:16:09.740Z,25.09
2018-10-18T13:17:09.717Z,25.09
2018-10-18T13:18:10.277Z,25.24
2018-10-18T13:19:09.842Z,25.19
2018-10-18T13:20:09.954Z,25.23
2018-10-18T13:21:09.949Z,25.26
2018-10-18T13:22:09.930Z,25.26